Map

Track Data

SID SEASON NUMBER BASIN SUBBASIN NAME ISO_TIME NATURE LAT LON WMO_WIND WMO_PRES WMO_AGENCY TRACK_TYPE DIST2LAND LANDFALL IFLAG USA_AGENCY USA_ATCF_ID USA_LAT USA_LON USA_RECORD USA_STATUS USA_WIND USA_PRES USA_SSHS USA_R34_NE USA_R34_SE USA_R34_SW USA_R34_NW USA_R50_NE USA_R50_SE USA_R50_SW USA_R50_NW USA_R64_NE USA_R64_SE USA_R64_SW USA_R64_NW USA_POCI USA_ROCI USA_RMW USA_EYE TOKYO_LAT TOKYO_LON TOKYO_GRADE TOKYO_WIND TOKYO_PRES TOKYO_R50_DIR TOKYO_R50_LONG TOKYO_R50_SHORT TOKYO_R30_DIR TOKYO_R30_LONG TOKYO_R30_SHORT TOKYO_LAND CMA_LAT CMA_LON CMA_CAT CMA_WIND CMA_PRES HKO_LAT HKO_LON HKO_CAT HKO_WIND HKO_PRES NEWDELHI_LAT NEWDELHI_LON NEWDELHI_GRADE NEWDELHI_WIND NEWDELHI_PRES NEWDELHI_CI NEWDELHI_DP NEWDELHI_POCI REUNION_LAT REUNION_LON REUNION_TYPE REUNION_WIND REUNION_PRES REUNION_TNUM REUNION_CI REUNION_RMW REUNION_R34_NE REUNION_R34_SE REUNION_R34_SW REUNION_R34_NW REUNION_R50_NE REUNION_R50_SE REUNION_R50_SW REUNION_R50_NW REUNION_R64_NE REUNION_R64_SE REUNION_R64_SW REUNION_R64_NW BOM_LAT BOM_LON BOM_TYPE BOM_WIND BOM_PRES BOM_TNUM BOM_CI BOM_RMW BOM_R34_NE BOM_R34_SE BOM_R34_SW BOM_R34_NW BOM_R50_NE BOM_R50_SE BOM_R50_SW BOM_R50_NW BOM_R64_NE BOM_R64_SE BOM_R64_SW BOM_R64_NW BOM_ROCI BOM_POCI BOM_EYE BOM_POS_METHOD BOM_PRES_METHOD NADI_LAT NADI_LON NADI_CAT NADI_WIND NADI_PRES WELLINGTON_LAT WELLINGTON_LON WELLINGTON_WIND WELLINGTON_PRES DS824_LAT DS824_LON DS824_STAGE DS824_WIND DS824_PRES TD9636_LAT TD9636_LON TD9636_STAGE TD9636_WIND TD9636_PRES TD9635_LAT TD9635_LON TD9635_WIND TD9635_PRES TD9635_ROCI NEUMANN_LAT NEUMANN_LON NEUMANN_CLASS NEUMANN_WIND NEUMANN_PRES MLC_LAT MLC_LON MLC_CLASS MLC_WIND MLC_PRES USA_GUST BOM_GUST BOM_GUST_PER REUNION_GUST REUNION_GUST_PER USA_SEAHGT USA_SEARAD_NE USA_SEARAD_SE USA_SEARAD_SW USA_SEARAD_NW STORM_SPEED STORM_DIR
1974280N10258 1974 113 EP MM PATRICIA 1974-10-06 12:00:00 TS 10.4000 -102.400 30 hurdat_epa main 763 763 O________OO___ hurdat_epa EP161974 10.4000 -102.400 TD 30 -1 10.4000 -102.400 TC 30 10.4000 -102.400 1 30 10 269
1974280N10258 1974 113 EP MM PATRICIA 1974-10-06 15:00:00 TS 10.3928 -102.905 main 785 785 P________PP___ EP161974 10.3877 -102.905 TD 30 -1 10.3877 -102.905 TC 30 10.4134 -102.904 1 31 10 270
1974280N10258 1974 113 EP MM PATRICIA 1974-10-06 18:00:00 TS 10.4082 -103.401 30 hurdat_epa main 810 810 O________OP___ hurdat_epa EP161974 10.4000 -103.400 TD 30 -1 10.4000 -103.400 TC 30 10.4411 -103.407 1 32 10 275
1974280N10258 1974 113 EP MM PATRICIA 1974-10-06 21:00:00 TS 10.4695 -103.889 main 819 819 P________PP___ EP161974 10.4623 -103.885 TD 32 -1 10.4623 -103.885 TC 32 10.4983 -103.906 1 33 10 281
1974280N10258 1974 113 EP MM PATRICIA 1974-10-07 00:00:00 TS 10.6000 -104.400 35 hurdat_epa main 830 829 O________OO___ hurdat_epa EP161974 10.6000 -104.400 TS 35 0 10.6000 -104.400 TC 35 10.6000 -104.400 2 35 11 288
1974280N10258 1974 113 EP MM PATRICIA 1974-10-07 03:00:00 TS 10.8138 -104.973 main 840 832 P________PP___ EP161974 10.8275 -104.992 TS 37 0 10.8275 -104.992 TC 37 10.7590 -104.894 2 38 12 293
1974280N10258 1974 113 EP MM PATRICIA 1974-10-07 06:00:00 TS 11.0757 -105.563 40 hurdat_epa main 835 828 O________OP___ hurdat_epa EP161974 11.1000 -105.600 TS 40 0 11.1000 -105.600 TC 40 10.9783 -105.417 2 42 12 294
1974280N10258 1974 113 EP MM PATRICIA 1974-10-07 09:00:00 TS 11.3073 -106.080 main 831 820 P________PP___ EP161974 11.3194 -106.098 TS 45 0 11.3194 -106.098 TC 45 11.2585 -106.007 2 46 12 295
1974280N10258 1974 113 EP MM PATRICIA 1974-10-07 12:00:00 TS 11.6000 -106.700 50 hurdat_epa main 825 819 O________OO___ hurdat_epa EP161974 11.6000 -106.700 TS 50 0 11.6000 -106.700 TC 50 11.6000 -106.700 2 50 16 296
1974280N10258 1974 113 EP MM PATRICIA 1974-10-07 15:00:00 TS 12.0165 -107.583 main 831 827 P________PP___ EP161974 12.0202 -107.590 TS 57 0 12.0202 -107.590 TC 57 12.0015 -107.554 2 55 21 296
1974280N10258 1974 113 EP MM PATRICIA 1974-10-07 18:00:00 TS 12.4912 -108.582 65 hurdat_epa main 848 847 O________OP___ hurdat_epa EP161974 12.5000 -108.600 HU 65 1 12.5000 -108.600 TC 65 12.4562 -108.509 2 60 21 296
1974280N10258 1974 113 EP MM PATRICIA 1974-10-07 21:00:00 TS 12.9524 -109.554 main 862 862 P________PP___ EP161974 12.9573 -109.565 HU 67 1 12.9573 -109.565 TC 67 12.9326 -109.510 2 65 21 296
1974280N10258 1974 113 EP MM PATRICIA 1974-10-08 00:00:00 TS 13.4000 -110.500 70 hurdat_epa main 889 889 O________OO___ hurdat_epa EP161974 13.4000 -110.500 HU 70 1 13.4000 -110.500 TC 70 13.4000 -110.500 4 70 20 296
1974280N10258 1974 113 EP MM PATRICIA 1974-10-08 03:00:00 TS 13.8140 -111.374 main 926 925 P________PP___ EP161974 13.8070 -111.358 HU 75 1 13.8070 -111.358 TC 75 13.8423 -111.437 4 72 19 296
1974280N10258 1974 113 EP MM PATRICIA 1974-10-08 06:00:00 TS 14.2134 -112.229 80 hurdat_epa main 957 957 O________OP___ hurdat_epa EP161974 14.2000 -112.200 HU 80 1 14.2000 -112.200 TC 80 14.2671 -112.347 4 75 19 295
1974280N10258 1974 113 EP MM PATRICIA 1974-10-08 09:00:00 TS 14.6298 -113.146 main 984 974 P________PP___ EP161974 14.6226 -113.130 HU 80 1 14.6226 -113.130 TC 80 14.6583 -113.209 4 77 19 295
1974280N10258 1974 113 EP MM PATRICIA 1974-10-08 12:00:00 TS 15.0000 -114.000 80 hurdat_epa main 978 973 O________OO___ hurdat_epa EP161974 15.0000 -114.000 HU 80 1 15.0000 -114.000 TC 80 15.0000 -114.000 4 80 16 293
1974280N10258 1974 113 EP MM PATRICIA 1974-10-08 15:00:00 TS 15.2759 -114.697 main 982 982 P________PP___ EP161974 15.2795 -114.695 HU 80 1 15.2795 -114.695 TC 80 15.2615 -114.703 4 80 14 291
1974280N10258 1974 113 EP MM PATRICIA 1974-10-08 18:00:00 TS 15.4956 -115.307 80 hurdat_epa main 997 997 O________OP___ hurdat_epa EP161974 15.5000 -115.300 HU 80 1 15.5000 -115.300 TC 80 15.4779 -115.335 4 80 12 289
1974280N10258 1974 113 EP MM PATRICIA 1974-10-08 21:00:00 TS 15.6899 -115.911 main 1015 1015 P________PP___ EP161974 15.6923 -115.908 HU 80 1 15.6923 -115.908 TC 80 15.6805 -115.924 4 80 12 289
1974280N10258 1974 113 EP MM PATRICIA 1974-10-09 00:00:00 TS 15.9000 -116.500 80 hurdat_epa main 1037 1036 O________OO___ hurdat_epa EP161974 15.9000 -116.500 HU 80 1 15.9000 -116.500 TC 80 15.9000 -116.500 4 80 13 293
1974280N10258 1974 113 EP MM PATRICIA 1974-10-09 03:00:00 TS 16.1861 -117.115 main 1055 1055 P________PP___ EP161974 16.1848 -117.100 HU 80 1 16.1848 -117.100 TC 80 16.1911 -117.175 4 80 13 297
1974280N10258 1974 113 EP MM PATRICIA 1974-10-09 06:00:00 TS 16.5002 -117.727 80 hurdat_epa main 1077 1077 O________OP___ hurdat_epa EP161974 16.5000 -117.700 HU 80 1 16.5000 -117.700 TC 80 16.5008 -117.834 4 80 14 297
1974280N10258 1974 113 EP MM PATRICIA 1974-10-09 09:00:00 TS 16.8021 -118.367 main 1099 1096 P________PP___ EP161974 16.8002 -118.352 HU 80 1 16.8002 -118.352 TC 80 16.8100 -118.425 4 80 13 298
1974280N10258 1974 113 EP MM PATRICIA 1974-10-09 12:00:00 TS 17.1000 -118.900 80 hurdat_epa main 1104 1099 O________OO___ hurdat_epa EP161974 17.1000 -118.900 HU 80 1 17.1000 -118.900 TC 80 17.1000 -118.900 4 80 10 307
1974280N10258 1974 113 EP MM PATRICIA 1974-10-09 15:00:00 TS 17.4182 -119.212 main 1099 1088 P________PP___ EP161974 17.4222 -119.225 HU 80 1 17.4222 -119.225 TC 80 17.4020 -119.161 4 80 8 322
1974280N10258 1974 113 EP MM PATRICIA 1974-10-09 18:00:00 TS 17.6951 -119.382 80 hurdat_epa main 1088 1071 O________OP___ hurdat_epa EP161974 17.7000 -119.400 HU 80 1 17.7000 -119.400 TC 80 17.6757 -119.311 4 80 5 334
1974280N10258 1974 113 EP MM PATRICIA 1974-10-09 21:00:00 TS 17.9051 -119.462 main 1079 1071 P________PP___ EP161974 17.9098 -119.470 HU 80 1 17.9098 -119.470 TC 80 17.8866 -119.430 4 80 4 326
1974280N10258 1974 113 EP MM PATRICIA 1974-10-10 00:00:00 TS 18.0000 -119.600 80 964 hurdat_epa main 1078 1078 O________OO___ hurdat_epa EP161974 18.0000 -119.600 HU 80 964 1 18.0000 -119.600 TC 80 964 18.0000 -119.600 4 80 5 275
1974280N10258 1974 113 EP MM PATRICIA 1974-10-10 03:00:00 TS 17.9499 -120.007 main 1116 1116 P________PP___ EP161974 17.9453 -120.013 HU 80 1 17.9453 -120.013 TC 80 17.9683 -119.985 4 78 9 257
1974280N10258 1974 113 EP MM PATRICIA 1974-10-10 06:00:00 TS 17.8082 -120.485 80 hurdat_epa main 1161 1161 O________OP___ hurdat_epa EP161974 17.8000 -120.500 HU 80 1 17.8000 -120.500 TC 80 17.8412 -120.424 4 77 9 250
1974280N10258 1974 113 EP MM PATRICIA 1974-10-10 09:00:00 TS 17.6477 -120.892 main 1208 1208 P________PP___ EP161974 17.6425 -120.903 HU 77 1 17.6425 -120.903 TC 77 17.6683 -120.851 4 76 7 246
1974280N10258 1974 113 EP MM PATRICIA 1974-10-10 12:00:00 TS 17.5000 -121.200 75 hurdat_epa main 1239 1239 O________OO___ hurdat_epa EP161974 17.5000 -121.200 HU 75 1 17.5000 -121.200 TC 75 17.5000 -121.200 4 75 5 244
1974280N10258 1974 113 EP MM PATRICIA 1974-10-10 15:00:00 TS 17.4375 -121.344 main 1254 1254 P________PP___ EP161974 17.4424 -121.337 HU 75 1 17.4424 -121.337 TC 75 17.4182 -121.370 4 75 2 241
1974280N10258 1974 113 EP MM PATRICIA 1974-10-10 18:00:00 TS 17.3899 -121.412 75 hurdat_epa main 1262 1262 O________OP___ hurdat_epa EP161974 17.4000 -121.400 HU 75 1 17.4000 -121.400 TC 75 17.3493 -121.459 4 75 2 228
1974280N10258 1974 113 EP MM PATRICIA 1974-10-10 21:00:00 TS 17.3081 -121.492 main 1277 1277 P________PP___ EP161974 17.3150 -121.485 HU 75 1 17.3150 -121.485 TC 75 17.2808 -121.520 4 75 3 224
1974280N10258 1974 113 EP MM PATRICIA 1974-10-11 00:00:00 TS 17.2000 -121.600 75 hurdat_epa main 1292 1292 O________OO___ hurdat_epa EP161974 17.2000 -121.600 HU 75 1 17.2000 -121.600 TC 75 17.2000 -121.600 4 75 4 228
1974280N10258 1974 113 EP MM PATRICIA 1974-10-11 03:00:00 TS 17.0571 -121.784 main 1316 1316 P________PP___ EP161974 17.0500 -121.785 HU 70 1 17.0500 -121.785 TC 70 17.0854 -121.780 4 70 5 233
1974280N10258 1974 113 EP MM PATRICIA 1974-10-11 06:00:00 TS 16.9115 -121.997 65 hurdat_epa main 1347 1347 O________OP___ hurdat_epa EP161974 16.9000 -122.000 HU 65 1 16.9000 -122.000 TC 65 16.9576 -121.985 4 65 5 237
1974280N10258 1974 113 EP MM PATRICIA 1974-10-11 09:00:00 TS 16.7992 -122.206 main 1370 1370 P________PP___ EP161974 16.7925 -122.207 HU 60 0 16.7925 -122.207 TC 60 16.8260 -122.198 4 60 4 241
1974280N10258 1974 113 EP MM PATRICIA 1974-10-11 12:00:00 TS 16.7000 -122.400 55 hurdat_epa main 1393 1393 O________OO___ hurdat_epa EP161974 16.7000 -122.400 TS 55 0 16.7000 -122.400 TC 55 16.7000 -122.400 2 55 4 238
1974280N10258 1974 113 EP MM PATRICIA 1974-10-11 15:00:00 TS 16.5976 -122.547 main 1408 1408 P________PP___ EP161974 16.6000 -122.557 TS 47 0 16.6000 -122.557 TC 47 16.5882 -122.507 2 51 3 233
1974280N10258 1974 113 EP MM PATRICIA 1974-10-11 18:00:00 TS 16.4968 -122.682 40 hurdat_epa main 1432 1432 O________OP___ hurdat_epa EP161974 16.5000 -122.700 TS 40 0 16.5000 -122.700 TC 40 16.4841 -122.610 2 47 3 230
1974280N10258 1974 113 EP MM PATRICIA 1974-10-11 21:00:00 TS 16.4034 -122.789 main 1447 1447 P________PP___ EP161974 16.4073 -122.797 TS 40 0 16.4073 -122.797 TC 40 16.3880 -122.757 2 43 4 237
1974280N10258 1974 113 EP MM PATRICIA 1974-10-12 00:00:00 TS 16.3000 -123.000 40 hurdat_epa main 1471 1471 O________OO___ hurdat_epa EP161974 16.3000 -123.000 TS 40 0 16.3000 -123.000 TC 40 16.3000 -123.000 2 40 7 248
1974280N10258 1974 113 EP MM PATRICIA 1974-10-12 03:00:00 TS 16.1492 -123.432 main 1517 1517 P________PP___ EP161974 16.1352 -123.448 TS 35 0 16.1352 -123.448 TC 35 16.2056 -123.371 2 37 10 253
1974280N10258 1974 113 EP MM PATRICIA 1974-10-12 06:00:00 TS 16.0240 -123.969 30 hurdat_epa main 1573 1573 O________OP___ hurdat_epa EP161974 16.0000 -124.000 TD 30 -1 16.0000 -124.000 TC 30 16.1198 -123.843 2 35 10 261
1974280N10258 1974 113 EP MM PATRICIA 1974-10-12 09:00:00 TS 15.9975 -124.454 main 1614 1614 P________PP___ EP161974 15.9846 -124.470 TD 30 -1 15.9846 -124.470 TC 30 16.0491 -124.393 2 32 10 269
1974280N10258 1974 113 EP MM PATRICIA 1974-10-12 12:00:00 TS 16.0000 -125.000 30 hurdat_epa main 1655 1655 O________OO___ hurdat_epa EP161974 16.0000 -125.000 TD 30 -1 16.0000 -125.000 TC 30 16.0000 -125.000 1 30 12 267
1974280N10258 1974 113 EP MM PATRICIA 1974-10-12 15:00:00 TS 15.9419 -125.679 main 1718 1718 P________PP___ EP161974 15.9426 -125.678 TD 30 -1 15.9426 -125.678 TC 30 15.9389 -125.682 1 30 14 266
1974280N10258 1974 113 EP MM PATRICIA 1974-10-12 18:00:00 TS 15.9008 -126.401 30 hurdat_epa main 1765 1765 O________OP___ hurdat_epa EP161974 15.9000 -126.400 TD 30 -1 15.9000 -126.400 TC 30 15.9042 -126.403 1 30 14 269
1974280N10258 1974 113 EP MM PATRICIA 1974-10-12 21:00:00 TS 15.9135 -127.102 main 1814 1814 P________PP___ EP161974 15.9126 -127.102 TD 30 -1 15.9126 -127.102 TC 30 15.9171 -127.098 1 30 13 275
1974280N10258 1974 113 EP MM PATRICIA 1974-10-13 00:00:00 TS 16.0000 -127.700 30 hurdat_epa main 1848 1848 O________OO___ hurdat_epa EP161974 16.0000 -127.700 TD 30 -1 16.0000 -127.700 TC 30 16.0000 -127.700 1 30 10 284
1974280N10258 1974 113 EP MM PATRICIA 1974-10-13 03:00:00 TS 16.1611 -128.110 main 1861 1861 P________PP___ EP161974 16.1622 -128.103 TD 27 -1 16.1622 -128.103 TC 27 16.1567 -128.138 1 28 8 300
1974280N10258 1974 113 EP MM PATRICIA 1974-10-13 06:00:00 TS 16.3972 -128.415 25 hurdat_epa main 1868 1868 O________OP___ hurdat_epa EP161974 16.4000 -128.400 TD 25 -1 16.4000 -128.400 TC 25 16.3862 -128.477 1 27 8 311
1974280N10258 1974 113 EP MM PATRICIA 1974-10-13 09:00:00 TS 16.6705 -128.723 main 1868 1868 P________PP___ EP161974 16.6700 -128.715 TD 25 -1 16.6700 -128.715 TC 25 16.6726 -128.753 1 26 8 317
1974280N10258 1974 113 EP MM PATRICIA 1974-10-13 12:00:00 TS 17.0000 -129.000 25 hurdat_epa main 1868 1854 O________OO___ hurdat_epa EP161974 17.0000 -129.000 TD 25 -1 17.0000 -129.000 TC 25 17.0000 -129.000 1 25 9 326
1974280N10258 1974 113 EP MM PATRICIA 1974-10-13 15:00:00 TS 17.4059 -129.248 main 1854 1842 P________PP___ EP161974 17.3924 -129.258 TD 25 -1 17.3924 -129.258 TC 25 17.4599 -129.210 1 25 10 331
1974280N10258 1974 113 EP MM PATRICIA 1974-10-13 18:00:00 TS 17.8272 -129.482 25 hurdat_epa main 1850 1830 O________OP___ hurdat_epa EP161974 17.8000 -129.500 TD 25 -1 17.8000 -129.500 TC 25 17.9359 -129.408 1 25 10 334
1974280N10258 1974 113 EP MM PATRICIA 1974-10-13 21:00:00 TS 18.2675 -129.688 main 1831 1831 P________PP___ EP161974 18.2547 -129.697 TD 25 -1 18.2547 -129.697 TC 25 18.3189 -129.652 1 25 8 324
1974280N10258 1974 113 EP MM PATRICIA 1974-10-14 00:00:00 TS 18.5000 -130.000 25 hurdat_epa main 1843 1843 O________OO___ hurdat_epa EP161974 18.5000 -130.000 TD 25 -1 18.5000 -130.000 TC 25 18.5000 -130.000 1 25 8 273
1974280N10258 1974 113 EP MM PATRICIA 1974-10-14 03:00:00 TS 18.3164 -130.545 main 1899 1899 P________PP___ EP161974 18.3201 -130.540 TD 25 -1 18.3201 -130.540 TC 25 18.3015 -130.561 1 25 13 242
1974280N10258 1974 113 EP MM PATRICIA 1974-10-14 06:00:00 TS 17.9004 -131.204 25 hurdat_epa main 1985 1985 O________OP___ hurdat_epa EP161974 17.9000 -131.200 TD 25 -1 17.9000 -131.200 TC 25 17.9022 -131.218 1 25 16 235
1974280N10258 1974 113 EP MM PATRICIA 1974-10-14 09:00:00 TS 17.4335 -131.888 main 2078 2078 P________PP___ EP161974 17.4352 -131.888 TD 25 -1 17.4352 -131.888 TC 25 17.4264 -131.890 1 25 15 234
1974280N10258 1974 113 EP MM PATRICIA 1974-10-14 12:00:00 TS 17.0000 -132.500 25 hurdat_epa main 2156 2156 O________OO___ hurdat_epa EP161974 17.0000 -132.500 TD 25 -1 17.0000 -132.500 TC 25 17.0000 -132.500 1 25 12 234
1974280N10258 1974 113 EP MM PATRICIA 1974-10-14 15:00:00 TS 16.7456 -132.895 main 2210 2210 P________PP___ EP161974 16.7396 -132.887 TD 25 -1 16.7396 -132.887 TC 25 16.7693 -132.925 1 26 8 240
1974280N10258 1974 113 EP MM PATRICIA 1974-10-14 18:00:00 TS 16.6027 -133.217 25 hurdat_epa main 2242 2242 O________OP___ hurdat_epa EP161974 16.6000 -133.200 TD 25 -1 16.6000 -133.200 TC 25 16.6133 -133.286 1 27 7 251
1974280N10258 1974 113 EP MM PATRICIA 1974-10-14 21:00:00 TS 16.5150 -133.588 main 2265 2223 P________PP___ EP161974 16.5124 -133.577 TD 25 -1 16.5124 -133.577 TC 25 16.5257 -133.629 1 28 8 262
1974280N10258 1974 113 EP MM PATRICIA 1974-10-15 00:00:00 TS 16.5000 -134.000 25 hurdat_epa main 2223 2182 O________OO___ hurdat_epa EP161974 16.5000 -134.000 TD 25 -1 16.5000 -134.000 TC 25 16.5000 -134.000 1 30 9 271
1974280N10258 1974 113 EP MM PATRICIA 1974-10-15 03:00:00 TS 16.5278 -134.475 main 2171 2117 P________PP___ EP161974 16.5275 -134.485 TD 25 -1 16.5275 -134.485 TC 25 16.5292 -134.435 1 30 9 276
1974280N10258 1974 113 EP MM PATRICIA 1974-10-15 06:00:00 TS 16.6023 -134.982 25 hurdat_epa main 2117 2073 O________OP___ hurdat_epa EP161974 16.6000 -135.000 TD 25 -1 16.6000 -135.000 TC 25 16.6117 -134.909 1 30 10 281
1974280N10258 1974 113 EP MM PATRICIA 1974-10-15 09:00:00 TS 16.7084 -135.462 main 2062 2008 P________PP___ EP161974 16.7071 -135.470 TD 25 -1 16.7071 -135.470 TC 25 16.7133 -135.429 1 30 10 281
1974280N10258 1974 113 EP MM PATRICIA 1974-10-15 12:00:00 TS 16.8000 -136.000 25 hurdat_epa main 2008 1945 O________OO___ hurdat_epa EP161974 16.8000 -136.000 TD 25 -1 16.8000 -136.000 TC 25 16.8000 -136.000 1 30 12 275
1974280N10258 1974 113 EP MM PATRICIA 1974-10-15 15:00:00 TS 16.8165 -136.672 main 1935 1872 P________PP___ EP161974 16.8151 -136.678 TD 25 -1 16.8151 -136.678 TC 25 16.8222 -136.649 1 30 13 270
1974280N10258 1974 113 EP MM PATRICIA 1974-10-15 18:00:00 TS 16.8047 -137.389 25 hurdat_epa main 1862 1800 O________OP___ hurdat_epa EP161974 16.8000 -137.400 TD 25 -1 16.8000 -137.400 TC 25 16.8234 -137.343 1 30 13 269
1974280N10258 1974 113 EP MM PATRICIA 1974-10-15 21:00:00 TS 16.8025 -138.072 main 1789 1727 P________PP___ EP161974 16.7999 -138.080 TD 25 -1 16.7999 -138.080 TC 25 16.8128 -138.040 1 30 13 270
1974280N10258 1974 113 EP MM PATRICIA 1974-10-16 00:00:00 TS 16.8000 -138.700 25 hurdat_epa main 1727 1675 O________OO___ hurdat_epa EP161974 16.8000 -138.700 TD 25 -1 16.8000 -138.700 TC 25 16.8000 -138.700 1 30 11 270
1974280N10258 1974 113 EP MM PATRICIA 1974-10-16 03:00:00 TS 16.7979 -139.225 main 1675 1623 P________PP___ EP161974 16.7996 -139.215 TD 25 -1 16.7996 -139.215 TC 25 16.7908 -139.264 1 30 10 270
1974280N10258 1974 113 EP MM PATRICIA 1974-10-16 06:00:00 TS 16.7967 -139.718 25 hurdat_epa main 1623 1571 O________OP___ hurdat_epa EP161974 16.8000 -139.700 TD 25 -1 16.8000 -139.700 TC 25 16.7836 -139.788 1 30 10 270
1974280N10258 1974 113 EP CP PATRICIA 1974-10-16 09:00:00 TS 16.7909 -140.253 main 1561 1509 P________PP___ EP161974 16.7924 -140.243 TD 25 -1 16.7924 -140.243 TC 25 16.7847 -140.292 1 30 10 270
1974280N10258 1974 113 EP CP PATRICIA 1974-10-16 12:00:00 TS 16.8000 -140.800 25 hurdat_epa main 1509 1457 O________OO___ hurdat_epa EP161974 16.8000 -140.800 TD 25 -1 16.8000 -140.800 TC 25 16.8000 -140.800 1 30 10 273
1974280N10258 1974 113 EP CP PATRICIA 1974-10-16 15:00:00 TS 16.8406 -141.346 main 1457 1393 P________PP___ EP161974 16.8424 -141.350 TD 25 -1 16.8424 -141.350 TC 25 16.8335 -141.328 1 28 11 275
1974280N10258 1974 113 EP CP PATRICIA 1974-10-16 18:00:00 TS 16.8963 -141.895 25 hurdat_epa main 1393 1341 O________OP___ hurdat_epa EP161974 16.9000 -141.900 TD 25 -1 16.9000 -141.900 TC 25 16.8817 -141.875 1 27 11 276
1974280N10258 1974 113 EP CP PATRICIA 1974-10-16 21:00:00 TS 16.9500 -142.447 main 1338 1276 P________PP___ EP161974 16.9528 -142.450 TD 25 -1 16.9528 -142.450 TC 25 16.9390 -142.434 1 26 11 276
1974280N10258 1974 113 EP CP PATRICIA 1974-10-17 00:00:00 TS 17.0000 -143.000 25 hurdat_epa main 1276 O________OO___ hurdat_epa EP161974 17.0000 -143.000 TD 25 -1 17.0000 -143.000 TC 25 17.0000 -143.000 1 25 11 275

About IBTrACS Database

This database is a web-friendly format of International Best Track Archive for Climate Stewardship (IBTrACS), a global best track data archive curated by NOAA dating back to 1842.

Updated: 2021-12-03